Time;durP1;ratioP1;P1;durP2;ratioP2;P2;SDS_P1;SDS_P2;PMS_P1;PMS_P2;Temp;Humidity;BMP_temperature;BMP_pressure;BME280_temperature;BME280_humidity;BME280_pressure;Samples;Min_cycle;Max_cycle;Signal;HPM_P1;HPM_P2
2023/12/13 00:00:36;;;;;;;5.00;3.17;;;;;;;8.71;95.84;99428.06;5054758;28;20655;-73
2023/12/13 00:03:03;;;;;;;4.20;3.90;;;;;;;8.68;95.88;99420.41;5054215;28;20707;-73
2023/12/13 00:05:30;;;;;;;6.30;2.83;;;;;;;8.67;96.17;99423.25;5054130;28;20183;-73
2023/12/13 00:07:56;;;;;;;3.37;3.33;;;;;;;8.73;95.77;99421.72;5053824;28;20242;-72
2023/12/13 00:10:23;;;;;;;3.00;2.80;;;;;;;8.79;95.71;99423.69;5053686;28;20218;-72
2023/12/13 00:12:49;;;;;;;2.70;2.60;;;;;;;8.73;95.62;99419.91;5053741;28;20266;-72
2023/12/13 00:15:16;;;;;;;2.50;2.40;;;;;;;8.77;95.05;99417.72;5053602;28;20211;-72
2023/12/13 00:17:42;;;;;;;2.73;2.60;;;;;;;8.69;95.20;99423.91;5053584;28;20241;-72
2023/12/13 00:20:09;;;;;;;2.30;2.20;;;;;;;8.69;95.22;99421.25;5054521;28;20222;-72
2023/12/13 00:22:36;;;;;;;4.03;2.60;;;;;;;8.76;95.14;99432.88;5054216;28;20175;-72
2023/12/13 00:25:04;;;;;;;4.63;2.50;;;;;;;8.68;94.91;99425.75;5054031;28;20282;-72
2023/12/13 00:27:30;;;;;;;2.30;2.30;;;;;;;8.67;94.99;99426.75;5053531;28;20198;-72
2023/12/13 00:29:57;;;;;;;2.53;2.37;;;;;;;8.71;94.58;99428.06;5053448;28;20257;-72
2023/12/13 00:32:23;;;;;;;3.73;2.40;;;;;;;8.74;93.99;99429.56;5053459;28;20187;-72
2023/12/13 00:34:50;;;;;;;1.73;1.63;;;;;;;8.63;94.75;99422.75;5052706;28;20257;-72
2023/12/13 00:37:16;;;;;;;3.60;2.20;;;;;;;8.65;94.51;99430.59;5053456;28;20534;-72
2023/12/13 00:39:43;;;;;;;5.83;2.03;;;;;;;8.60;94.46;99428.44;5053419;28;20582;-72
2023/12/13 00:42:11;;;;;;;2.23;1.80;;;;;;;8.63;94.17;99422.75;5053593;28;20616;-72
2023/12/13 00:44:38;;;;;;;2.87;1.87;;;;;;;8.66;94.01;99416.25;5053521;28;20582;-72
2023/12/13 00:47:05;;;;;;;4.93;1.87;;;;;;;8.64;93.95;99412.94;5053513;28;20241;-72
2023/12/13 00:49:31;;;;;;;2.17;1.97;;;;;;;8.57;93.91;99415.44;5053169;28;20203;-72
2023/12/13 00:51:58;;;;;;;3.23;2.20;;;;;;;8.65;93.52;99418.09;5053183;28;20187;-72
2023/12/13 00:54:25;;;;;;;2.37;2.27;;;;;;;8.59;93.41;99415.28;5053357;28;20236;-72
2023/12/13 00:56:51;;;;;;;3.43;2.40;;;;;;;8.58;93.38;99416.28;5053118;28;20187;-72
2023/12/13 00:59:18;;;;;;;2.40;2.03;;;;;;;8.56;93.58;99420.94;5053598;28;20264;-72
2023/12/13 01:01:44;;;;;;;2.50;2.33;;;;;;;8.50;93.66;99427.78;5053076;28;20187;-72
2023/12/13 01:04:11;;;;;;;2.80;2.60;;;;;;;8.43;93.92;99436.63;5053870;28;20179;-72
2023/12/13 01:06:38;;;;;;;2.73;2.17;;;;;;;8.46;93.82;99431.78;5053030;28;20194;-72
2023/12/13 01:09:05;;;;;;;2.10;2.10;;;;;;;8.51;93.51;99436.59;5052953;28;20628;-72
2023/12/13 01:11:31;;;;;;;2.40;2.30;;;;;;;8.47;93.46;99429.97;5053260;28;20241;-72
2023/12/13 01:13:58;;;;;;;2.23;2.13;;;;;;;8.51;93.65;99437.44;5052945;28;20187;-72
2023/12/13 01:16:25;;;;;;;5.70;1.60;;;;;;;8.47;93.49;99436.13;5052635;28;20211;-72
2023/12/13 01:18:51;;;;;;;3.13;2.13;;;;;;;8.46;93.85;99441.59;5052874;28;20234;-72
2023/12/13 01:21:18;;;;;;;1.90;1.80;;;;;;;8.39;93.31;99435.31;5052870;28;20193;-72
2023/12/13 01:23:44;;;;;;;2.97;1.80;;;;;;;8.36;93.81;99425.81;5052840;28;20240;-72
2023/12/13 01:26:10;;;;;;;3.73;1.83;;;;;;;8.32;93.72;99432.47;5052800;28;20184;-72
2023/12/13 01:28:37;;;;;;;1.60;1.60;;;;;;;8.28;93.83;99437.28;5052798;28;20621;-72
2023/12/13 01:31:09;;;;;;;1.90;1.80;;;;;;;8.27;93.98;99432.94;5053145;28;20228;-72
2023/12/13 01:33:36;;;;;;;3.50;1.80;;;;;;;8.23;93.86;99428.16;5053307;28;20254;-72
2023/12/13 01:36:03;;;;;;;2.23;1.70;;;;;;;8.20;94.13;99431.97;5053276;28;20199;-72
2023/12/13 01:38:30;;;;;;;1.50;1.50;;;;;;;8.18;93.63;99439.31;5052875;28;20347;-72
2023/12/13 01:40:56;;;;;;;3.80;1.50;;;;;;;8.21;93.80;99433.63;5051461;28;20652;-72
2023/12/13 01:43:42;;;;;;;1.50;1.50;;;;;;;8.14;93.72;99440.63;5052963;28;20183;-72
2023/12/13 01:46:11;;;;;;;1.63;1.63;;;;;;;8.15;93.65;99436.13;5052950;28;20616;-72
2023/12/13 01:48:39;;;;;;;1.83;1.70;;;;;;;8.09;93.82;99432.31;5055207;28;20203;-72
2023/12/13 01:51:06;;;;;;;1.30;1.30;;;;;;;8.20;93.56;99439.94;5057022;28;20203;-72
2023/12/13 01:53:34;;;;;;;7.93;1.73;;;;;;;8.12;93.88;99442.63;5056916;28;20199;-72
2023/12/13 01:56:03;;;;;;;1.50;1.40;;;;;;;8.15;93.74;99444.94;5056825;28;20683;-72
2023/12/13 01:58:29;;;;;;;2.10;1.37;;;;;;;8.13;94.05;99444.28;5056213;28;20253;-72
2023/12/13 02:00:56;;;;;;;1.73;1.50;;;;;;;8.14;94.02;99450.44;5056275;28;20278;-72
2023/12/13 02:03:24;;;;;;;6.33;1.50;;;;;;;8.13;94.36;99443.44;5056236;28;20591;-72
2023/12/13 02:05:53;;;;;;;7.47;2.37;;;;;;;8.10;94.71;99436.66;5056425;28;20237;-72
2023/12/13 02:08:22;;;;;;;5.77;1.83;;;;;;;8.08;94.92;99433.31;5056063;28;20224;-72
2023/12/13 02:10:49;;;;;;;5.03;1.90;;;;;;;8.12;95.16;99431.97;5056373;28;20233;-72
2023/12/13 02:13:16;;;;;;;2.77;1.97;;;;;;;8.06;95.41;99435.28;5056353;28;20217;-72
2023/12/13 02:15:44;;;;;;;2.90;2.67;;;;;;;8.01;95.49;99432.31;5055911;28;20726;-72
2023/12/13 02:18:11;;;;;;;4.57;3.07;;;;;;;8.01;95.82;99434.16;5055922;28;20191;-72
2023/12/13 02:20:38;;;;;;;5.37;2.50;;;;;;;8.06;95.56;99437.94;5056424;28;20714;-72
2023/12/13 02:23:04;;;;;;;5.90;2.30;;;;;;;8.16;95.43;99432.47;5055863;28;20195;-72
2023/12/13 02:25:37;;;;;;;2.70;2.10;;;;;;;8.14;95.30;99440.63;5056360;28;20188;-72
2023/12/13 02:28:04;;;;;;;4.33;2.17;;;;;;;8.23;95.02;99438.78;5056215;28;20180;-73
2023/12/13 02:30:31;;;;;;;2.40;2.10;;;;;;;8.16;95.36;99437.78;5055815;28;20191;-73
2023/12/13 02:32:57;;;;;;;4.43;1.90;;;;;;;8.16;95.65;99438.63;5055939;28;20282;-73
2023/12/13 02:35:24;;;;;;;2.50;2.30;;;;;;;8.13;95.80;99435.47;5055723;28;20277;-73
2023/12/13 02:37:50;;;;;;;2.90;2.70;;;;;;;8.11;95.66;99434.78;5055731;28;20665;-73
2023/12/13 02:40:18;;;;;;;5.63;2.40;;;;;;;8.06;96.03;99429.97;5056068;28;20269;-74
2023/12/13 02:42:45;;;;;;;2.67;2.50;;;;;;;8.09;96.33;99427.00;5055535;28;20245;-73
2023/12/13 02:45:13;;;;;;;19.40;2.20;;;;;;;8.09;96.08;99426.16;5055430;28;20191;-73
2023/12/13 02:47:42;;;;;;;5.37;2.03;;;;;;;8.08;96.31;99421.81;5055753;28;20579;-73
2023/12/13 02:50:12;;;;;;;3.07;1.90;;;;;;;8.08;96.28;99421.81;5055368;28;20211;-73
2023/12/13 02:52:40;;;;;;;2.67;2.50;;;;;;;8.03;96.63;99419.66;5055660;28;20237;-73
2023/12/13 02:55:09;;;;;;;2.40;2.30;;;;;;;8.08;96.15;99417.34;5055744;28;20211;-73
2023/12/13 02:57:37;;;;;;;2.20;2.17;;;;;;;8.11;96.39;99426.81;5055532;28;20199;-73
2023/12/13 03:00:05;;;;;;;4.23;2.20;;;;;;;8.07;96.73;99418.31;5053870;28;20214;-73
2023/12/13 03:02:31;;;;;;;2.00;1.90;;;;;;;8.06;96.67;99418.50;5055234;28;20608;-73
2023/12/13 03:05:00;;;;;;;2.53;2.53;;;;;;;8.06;96.48;99416.66;5055338;28;20655;-73
2023/12/13 03:07:28;;;;;;;5.13;2.30;;;;;;;8.05;97.07;99415.03;5055342;28;20192;-73
2023/12/13 03:09:54;;;;;;;2.93;2.20;;;;;;;8.02;96.96;99409.22;5054957;28;20203;-73
2023/12/13 03:12:21;;;;;;;5.30;2.40;;;;;;;8.04;97.01;99401.88;5055550;28;20241;-73
2023/12/13 03:14:47;;;;;;;2.37;2.17;;;;;;;8.05;96.95;99404.38;5055395;28;20717;-74
2023/12/13 03:17:14;;;;;;;3.03;2.33;;;;;;;8.05;97.15;99401.72;5054896;28;20195;-74
2023/12/13 03:19:40;;;;;;;4.93;2.50;;;;;;;8.02;97.33;99395.91;5054777;28;20218;-74
2023/12/13 03:22:07;;;;;;;2.43;2.20;;;;;;;8.00;97.46;99387.22;5055001;28;20190;-74
2023/12/13 03:24:35;;;;;;;5.03;2.73;;;;;;;7.98;97.87;99383.91;5054693;28;20705;-74
2023/12/13 03:27:01;;;;;;;2.90;2.70;;;;;;;7.98;97.76;99383.91;5054665;28;20179;-74
2023/12/13 03:29:28;;;;;;;2.60;1.93;;;;;;;8.11;97.41;99395.69;5054860;28;20260;-74
2023/12/13 03:31:54;;;;;;;2.40;2.20;;;;;;;8.10;97.53;99388.72;5054602;28;20191;-73
2023/12/13 03:34:21;;;;;;;5.57;2.43;;;;;;;8.12;97.44;99383.22;5054798;28;20237;-73
2023/12/13 03:36:47;;;;;;;2.20;2.20;;;;;;;8.06;97.76;99383.91;5055169;28;20709;-73
2023/12/13 03:39:14;;;;;;;3.07;3.00;;;;;;;8.03;97.99;99371.75;5054992;28;20211;-73
2023/12/13 03:41:40;;;;;;;2.43;2.23;;;;;;;8.07;97.68;99369.59;5054948;28;20590;-73
2023/12/13 03:44:07;;;;;;;5.40;2.10;;;;;;;8.06;97.67;99367.94;5054581;28;20199;-73
2023/12/13 03:46:34;;;;;;;7.00;2.30;;;;;;;8.06;97.97;99365.28;5054578;28;20187;-73
2023/12/13 03:49:03;;;;;;;3.77;2.70;;;;;;;8.05;97.84;99371.59;5054196;28;20633;-74
2023/12/13 03:51:30;;;;;;;3.40;2.13;;;;;;;8.06;97.86;99366.09;5054194;28;20233;-74
2023/12/13 03:53:56;;;;;;;6.80;2.73;;;;;;;8.07;98.01;99356.28;5054145;28;20244;-74
2023/12/13 03:56:23;;;;;;;9.60;2.53;;;;;;;8.05;97.83;99364.44;5054269;28;20203;-74
2023/12/13 03:58:49;;;;;;;5.93;2.10;;;;;;;8.09;98.14;99359.63;5053983;28;20263;-74
2023/12/13 04:01:15;;;;;;;4.33;3.00;;;;;;;8.11;97.95;99361.09;5054087;28;20183;-74
2023/12/13 04:03:42;;;;;;;3.03;2.83;;;;;;;8.08;98.21;99366.75;5054239;28;20241;-74
2023/12/13 04:06:09;;;;;;;3.70;2.23;;;;;;;8.10;98.17;99361.28;5054023;28;20599;-73
2023/12/13 04:08:35;;;;;;;5.30;2.53;;;;;;;8.09;98.15;99359.63;5054028;28;20225;-73
2023/12/13 04:11:02;;;;;;;2.60;2.47;;;;;;;8.15;98.20;99357.09;5053457;28;20191;-73
2023/12/13 04:13:28;;;;;;;6.87;2.60;;;;;;;8.21;98.14;99359.09;5054068;28;20200;-73
2023/12/13 04:15:54;;;;;;;3.33;3.10;;;;;;;8.31;97.98;99350.13;5053713;28;20218;-73
2023/12/13 04:18:21;;;;;;;6.33;3.47;;;;;;;8.28;97.68;99351.25;5053476;28;20651;-73
2023/12/13 04:20:47;;;;;;;10.50;3.93;;;;;;;8.26;97.77;99356.75;5054167;28;20666;-73
2023/12/13 04:23:14;;;;;;;6.17;2.97;;;;;;;8.31;97.91;99350.13;5054151;28;20179;-73
2023/12/13 04:25:40;;;;;;;4.00;2.80;;;;;;;8.44;97.37;99345.09;5053646;28;20721;-73
2023/12/13 04:28:08;;;;;;;7.73;2.97;;;;;;;8.41;97.32;99348.06;5053481;28;20725;-73
2023/12/13 04:30:34;;;;;;;7.73;2.80;;;;;;;8.45;97.03;99357.38;5053742;28;20536;-73
2023/12/13 04:33:01;;;;;;;3.90;2.80;;;;;;;8.43;97.23;99348.75;5054045;28;20187;-73
2023/12/13 04:35:28;;;;;;;11.10;2.80;;;;;;;8.41;97.28;99358.72;5053677;28;20720;-73
2023/12/13 04:37:54;;;;;;;5.90;3.67;;;;;;;8.41;97.26;99350.72;5053985;28;20187;-73
2023/12/13 04:40:21;;;;;;;10.67;4.17;;;;;;;8.41;97.11;99356.06;5053412;28;20198;-73
2023/12/13 04:42:48;;;;;;;5.77;4.40;;;;;;;8.39;97.20;99350.94;5053618;28;20194;-73
2023/12/13 04:45:14;;;;;;;7.73;5.30;;;;;;;8.40;97.13;99354.41;5053912;28;20252;-73
2023/12/13 04:47:41;;;;;;;9.17;5.83;;;;;;;8.43;96.91;99356.72;5053523;28;20191;-73
2023/12/13 04:50:08;;;;;;;8.93;4.00;;;;;;;8.38;97.04;99361.72;5053156;28;20301;-73
2023/12/13 04:52:34;;;;;;;4.33;4.10;;;;;;;8.33;97.47;99358.75;5053767;28;20210;-73
2023/12/13 04:55:01;;;;;;;11.83;4.27;;;;;;;8.32;97.06;99357.91;5054231;28;20576;-73
2023/12/13 04:57:28;;;;;;;4.00;3.63;;;;;;;8.33;97.28;99358.75;5053098;28;20238;-73
2023/12/13 04:59:54;;;;;;;11.33;4.17;;;;;;;8.36;97.32;99356.56;5053041;28;20687;-73
2023/12/13 05:02:21;;;;;;;3.63;3.30;;;;;;;8.35;97.19;99354.94;5053105;28;20199;-73
2023/12/13 05:04:47;;;;;;;5.77;3.40;;;;;;;8.36;96.88;99350.44;5053425;28;20187;-73
2023/12/13 05:07:14;;;;;;;8.17;3.30;;;;;;;8.40;96.79;99354.41;5053084;28;20194;-73
2023/12/13 05:09:40;;;;;;;8.67;3.30;;;;;;;8.41;96.90;99350.72;5052954;28;20578;-73
2023/12/13 05:12:07;;;;;;;10.77;4.73;;;;;;;8.45;96.75;99347.56;5053544;28;20199;-73
2023/12/13 05:14:33;;;;;;;5.23;3.53;;;;;;;8.49;96.72;99340.03;5053003;28;20202;-73
2023/12/13 05:17:00;;;;;;;6.53;2.80;;;;;;;8.53;96.56;99354.72;5052740;28;20218;-73
2023/12/13 05:19:26;;;;;;;8.63;3.13;;;;;;;8.50;96.47;99350.53;5053142;28;20565;-73
2023/12/13 05:21:53;;;;;;;5.37;2.90;;;;;;;8.44;96.43;99345.91;5052906;28;20194;-73
2023/12/13 05:24:19;;;;;;;2.40;2.30;;;;;;;8.41;96.34;99348.06;5057226;28;20542;-73
2023/12/13 05:26:46;;;;;;;3.80;3.00;;;;;;;8.36;96.63;99345.91;5057289;28;20199;-73
2023/12/13 05:29:12;;;;;;;7.57;2.60;;;;;;;8.35;96.56;99343.44;5057113;28;20222;-73
2023/12/13 05:31:39;;;;;;;6.97;2.60;;;;;;;8.32;96.76;99341.13;5057356;28;20273;-73
2023/12/13 05:34:05;;;;;;;5.13;3.07;;;;;;;8.28;96.88;99341.41;5057092;28;20187;-73
2023/12/13 05:36:32;;;;;;;5.60;2.60;;;;;;;8.31;96.91;99339.47;5057002;28;20207;-73
2023/12/13 05:38:58;;;;;;;6.97;2.97;;;;;;;8.31;96.96;99336.81;5056963;28;20211;-73
2023/12/13 05:41:25;;;;;;;15.60;2.90;;;;;;;8.26;97.29;99337.28;5056878;28;20198;-73
2023/12/13 05:43:51;;;;;;;3.30;3.00;;;;;;;8.31;97.11;99334.97;5056670;28;20190;-73
2023/12/13 05:46:18;;;;;;;2.97;2.73;;;;;;;8.27;97.34;99337.09;5056465;28;20198;-72
2023/12/13 05:48:44;;;;;;;8.03;2.73;;;;;;;8.31;97.48;99339.47;5057180;28;20207;-72
2023/12/13 05:51:11;;;;;;;5.40;2.90;;;;;;;8.27;97.40;99344.28;5056819;28;20245;-72
2023/12/13 05:53:37;;;;;;;13.50;3.20;;;;;;;8.23;97.75;99341.09;5056461;28;20249;-72
2023/12/13 05:56:04;;;;;;;10.00;3.17;;;;;;;8.27;97.83;99346.94;5056707;28;20682;-72
2023/12/13 05:58:31;;;;;;;6.00;3.40;;;;;;;8.38;97.32;99349.25;5056811;28;20203;-72
2023/12/13 06:00:57;;;;;;;4.80;2.97;;;;;;;8.37;97.37;99357.41;5056248;28;20222;-72
2023/12/13 06:03:25;;;;;;;10.83;3.00;;;;;;;8.53;96.76;99352.84;5056316;28;20187;-73
2023/12/13 06:05:54;;;;;;;6.10;4.17;;;;;;;8.53;96.96;99355.53;5056633;28;20206;-72
2023/12/13 06:08:20;;;;;;;14.43;3.80;;;;;;;8.53;97.11;99357.38;5056411;28;20221;-73
2023/12/13 06:10:47;;;;;;;10.33;4.27;;;;;;;8.48;97.24;99354.41;5056141;28;20194;-73
2023/12/13 06:13:13;;;;;;;6.53;4.10;;;;;;;8.45;97.40;99360.03;5056043;28;20663;-73
2023/12/13 06:15:40;;;;;;;9.07;3.53;;;;;;;8.39;97.44;99345.59;5055978;28;20191;-73
2023/12/13 06:18:06;;;;;;;12.17;4.17;;;;;;;8.41;97.51;99358.72;5055887;28;20199;-73
2023/12/13 06:20:33;;;;;;;14.40;3.27;;;;;;;8.40;97.35;99354.41;5056243;28;20190;-73
2023/12/13 06:22:59;;;;;;;6.30;3.73;;;;;;;8.44;97.45;99353.06;5055896;28;20187;-73
2023/12/13 06:25:25;;;;;;;10.30;3.83;;;;;;;8.38;97.81;99354.59;5055862;28;20233;-73
2023/12/13 06:27:52;;;;;;;7.20;4.10;;;;;;;8.38;97.70;99356.41;5055812;28;20183;-73
2023/12/13 06:30:18;;;;;;;6.53;3.97;;;;;;;8.39;97.50;99361.56;5056511;28;20701;-73
2023/12/13 06:32:45;;;;;;;9.63;3.27;;;;;;;8.43;97.67;99351.41;5055996;28;20230;-73
2023/12/13 06:35:13;;;;;;;8.23;3.43;;;;;;;8.41;97.84;99356.06;5056002;28;20192;-73
2023/12/13 06:37:40;;;;;;;11.90;3.30;;;;;;;8.39;98.06;99358.06;5055508;28;20213;-73
2023/12/13 06:40:07;;;;;;;7.60;4.23;;;;;;;8.39;98.22;99360.75;5055601;28;20313;-73
2023/12/13 06:42:33;;;;;;;4.90;3.87;;;;;;;8.39;97.99;99360.75;5055852;28;20262;-73
2023/12/13 06:45:00;;;;;;;14.37;4.77;;;;;;;8.40;97.99;99359.75;5054233;28;20237;-73
2023/12/13 06:47:26;;;;;;;5.03;4.47;;;;;;;8.43;97.92;99365.56;5055671;28;20179;-73
2023/12/13 06:49:56;;;;;;;6.10;4.73;;;;;;;8.44;97.74;99361.91;5055693;28;20621;-73
2023/12/13 06:52:22;;;;;;;7.93;3.73;;;;;;;8.45;97.92;99362.69;5055611;28;20175;-73
2023/12/13 06:54:49;;;;;;;19.77;6.60;;;;;;;8.44;98.05;99358.41;5055523;28;20200;-73
2023/12/13 06:57:16;;;;;;;7.27;6.57;;;;;;;8.45;97.92;99368.88;5055380;28;20211;-73
2023/12/13 06:59:42;;;;;;;12.40;6.07;;;;;;;8.47;97.83;99368.69;5055085;28;20208;-73
2023/12/13 07:02:09;;;;;;;7.70;5.77;;;;;;;8.43;98.27;99367.38;5055073;28;20194;-72
2023/12/13 07:04:35;;;;;;;8.30;5.17;;;;;;;8.43;98.30;99365.56;5055624;28;20651;-72
2023/12/13 07:07:02;;;;;;;12.53;5.23;;;;;;;8.44;98.23;99374.38;5055056;28;20188;-73
2023/12/13 07:09:30;;;;;;;8.83;4.90;;;;;;;8.38;98.56;99365.22;5055035;28;20210;-73
2023/12/13 07:11:56;;;;;;;9.47;4.80;;;;;;;8.36;98.77;99371.75;5055102;28;20191;-74
2023/12/13 07:14:23;;;;;;;5.90;4.37;;;;;;;8.33;99.09;99370.22;5055176;28;20190;-76
2023/12/13 07:16:49;;;;;;;6.70;4.73;;;;;;;8.34;99.04;99371.06;5054928;28;20231;-76
2023/12/13 07:19:16;;;;;;;6.77;4.27;;;;;;;8.36;99.11;99366.41;5055057;28;20594;-76
2023/12/13 07:21:43;;;;;;;8.90;4.30;;;;;;;8.37;98.73;99376.03;5055035;28;20187;-76
2023/12/13 07:24:10;;;;;;;16.90;5.47;;;;;;;8.35;99.34;99381.56;5054747;28;20186;-76
2023/12/13 07:26:36;;;;;;;4.90;4.40;;;;;;;8.38;99.16;99385.69;5055490;28;20237;-76
2023/12/13 07:29:03;;;;;;;6.73;4.40;;;;;;;8.39;98.98;99380.22;5055094;28;20218;-75
2023/12/13 07:31:29;;;;;;;10.53;5.43;;;;;;;8.38;99.13;99388.38;5053708;28;20602;-75
2023/12/13 07:33:56;;;;;;;13.67;5.23;;;;;;;8.37;99.17;99376.03;5054565;28;20266;-76
2023/12/13 07:36:27;;;;;;;8.90;5.10;;;;;;;8.34;99.27;99376.41;5054998;28;20200;-76
2023/12/13 07:38:53;;;;;;;16.47;5.37;;;;;;;8.33;99.33;99388.88;5054391;28;20208;-75
2023/12/13 07:41:20;;;;;;;22.37;6.63;;;;;;;8.30;99.40;99383.06;5054919;28;20191;-75
2023/12/13 07:43:47;;;;;;;14.70;7.10;;;;;;;8.31;99.33;99380.25;5054628;28;20229;-76
2023/12/13 07:46:13;;;;;;;18.23;6.47;;;;;;;8.32;99.46;99386.41;5054052;28;20203;-76
2023/12/13 07:48:41;;;;;;;7.80;6.00;;;;;;;8.34;99.35;99389.72;5054759;28;20703;-75
2023/12/13 07:51:08;;;;;;;25.97;7.77;;;;;;;8.33;99.34;99385.38;5054210;28;20196;-75
2023/12/13 07:53:34;;;;;;;13.57;7.50;;;;;;;8.33;99.35;99382.72;5054164;28;20203;-75
2023/12/13 07:56:01;;;;;;;13.47;7.00;;;;;;;8.33;99.53;99383.53;5054103;28;20183;-75
2023/12/13 07:58:27;;;;;;;13.30;6.20;;;;;;;8.34;99.54;99381.72;5053914;28;20218;-75
2023/12/13 08:00:54;;;;;;;14.77;5.97;;;;;;;8.33;99.21;99385.38;5054276;28;20194;-75
2023/12/13 08:03:20;;;;;;;7.90;5.10;;;;;;;8.35;99.31;99380.72;5053955;28;20183;-75
2023/12/13 08:05:47;;;;;;;7.33;5.17;;;;;;;8.36;99.18;99377.88;5053945;28;20202;-75
2023/12/13 08:08:15;;;;;;;8.03;4.60;;;;;;;8.30;99.20;99381.22;5054052;28;20190;-75
2023/12/13 08:10:43;;;;;;;12.40;5.17;;;;;;;8.25;99.08;99381.72;5052667;28;20602;-75
2023/12/13 08:13:09;;;;;;;4.77;4.37;;;;;;;8.26;99.21;99380.72;5054290;28;20602;-75
2023/12/13 08:15:36;;;;;;;8.57;4.27;;;;;;;8.27;98.95;99379.69;5054044;28;20187;-75
2023/12/13 08:18:02;;;;;;;9.50;5.30;;;;;;;8.30;98.88;99383.91;5053692;28;20206;-75
2023/12/13 08:20:29;;;;;;;12.77;5.77;;;;;;;8.27;98.79;99386.88;5053646;28;20205;-75
2023/12/13 08:22:57;;;;;;;8.03;5.30;;;;;;;8.24;98.84;99379.19;5053849;28;20198;-75
2023/12/13 08:25:23;;;;;;;5.77;4.60;;;;;;;8.25;98.75;99381.72;5053556;28;20197;-75
2023/12/13 08:27:50;;;;;;;9.00;6.23;;;;;;;8.26;98.70;99378.06;5053541;28;20266;-75
2023/12/13 08:30:16;;;;;;;7.27;4.63;;;;;;;8.27;98.71;99390.34;5053556;28;20217;-75
2023/12/13 08:32:43;;;;;;;9.47;5.77;;;;;;;8.30;98.57;99385.72;5053905;28;20655;-75
2023/12/13 08:35:09;;;;;;;8.00;4.73;;;;;;;8.31;98.91;99390.06;5053422;28;20190;-75
2023/12/13 08:37:36;;;;;;;11.67;4.97;;;;;;;8.30;98.91;99385.72;5053277;28;20207;-75
2023/12/13 08:40:04;;;;;;;14.47;6.20;;;;;;;8.38;98.60;99391.03;5053574;28;20203;-75
2023/12/13 08:42:31;;;;;;;16.53;5.70;;;;;;;8.42;98.80;99398.50;5053319;28;20233;-75
2023/12/13 08:45:09;;;;;;;16.53;6.23;;;;;;;8.41;98.54;99396.00;5053957;28;20187;-74
2023/12/13 08:47:37;;;;;;;14.30;6.20;;;;;;;8.45;98.60;99395.50;5053243;28;20191;-74
2023/12/13 08:50:04;;;;;;;15.63;5.80;;;;;;;8.51;98.24;99399.31;5053391;28;20622;-74
2023/12/13 08:52:30;;;;;;;12.67;5.73;;;;;;;8.53;98.37;99400.00;5053277;28;20214;-74
2023/12/13 08:54:57;;;;;;;9.80;5.93;;;;;;;8.55;98.11;99396.16;5053162;28;20187;-74
2023/12/13 08:57:23;;;;;;;10.63;6.13;;;;;;;8.54;98.25;99396.31;5053239;28;20223;-76
2023/12/13 08:59:50;;;;;;;9.90;6.20;;;;;;;8.57;98.37;99401.31;5053105;28;20272;-75
2023/12/13 09:02:27;;;;;;;10.73;7.10;;;;;;;8.64;98.34;99399.63;5053466;28;20179;-74
2023/12/13 09:04:54;;;;;;;18.13;12.57;;;;;;;8.61;98.46;99411.44;5053790;28;20648;-74
2023/12/13 09:07:20;;;;;;;14.57;8.67;;;;;;;8.65;98.31;99411.94;5053560;28;20221;-74
2023/12/13 09:09:47;;;;;;;6.67;6.30;;;;;;;8.66;98.27;99401.09;5052922;28;20210;-74
2023/12/13 09:12:13;;;;;;;9.50;6.27;;;;;;;8.74;98.14;99416.25;5053234;28;20222;-74
2023/12/13 09:14:40;;;;;;;26.90;11.43;;;;;;;8.70;98.06;99412.22;5052874;28;20270;-74
2023/12/13 09:17:06;;;;;;;23.20;9.27;;;;;;;8.76;98.14;99421.38;5053037;28;20207;-74
2023/12/13 09:19:33;;;;;;;16.97;8.97;;;;;;;8.78;98.09;99414.91;5052907;28;20207;-74
2023/12/13 09:21:59;;;;;;;17.33;8.27;;;;;;;8.82;98.03;99418.88;5053010;28;20587;-74
2023/12/13 09:24:26;;;;;;;17.27;10.57;;;;;;;8.82;97.91;99418.03;5053119;28;20248;-75
2023/12/13 09:26:52;;;;;;;20.87;12.93;;;;;;;8.80;97.73;99420.88;5053416;28;20285;-75
2023/12/13 09:29:19;;;;;;;14.00;5.00;;;;;;;8.90;96.66;99429.50;5053013;28;20218;-75
2023/12/13 09:31:45;;;;;;;9.97;6.50;;;;;;;8.83;96.27;99425.84;5052756;28;20183;-75
2023/12/13 09:34:12;;;;;;;7.43;4.60;;;;;;;8.78;96.68;99436.22;5053042;28;20270;-75
2023/12/13 09:36:40;;;;;;;16.43;5.17;;;;;;;8.76;96.91;99434.72;5053026;28;20744;-75
2023/12/13 09:39:06;;;;;;;5.13;4.57;;;;;;;8.76;96.95;99445.38;5053006;28;20218;-75
2023/12/13 09:41:52;;;;;;;14.20;4.30;;;;;;;8.76;97.08;99438.19;5053250;28;20542;-75
2023/12/13 09:44:22;;;;;;;12.10;4.40;;;;;;;8.76;97.40;99451.53;5052740;28;20187;-75
2023/12/13 09:46:51;;;;;;;7.10;4.93;;;;;;;8.76;97.25;99437.38;5052878;28;20188;-75
2023/12/13 09:49:20;;;;;;;6.73;5.40;;;;;;;8.80;97.69;99439.53;5052597;28;20219;-75
2023/12/13 09:52:06;;;;;;;5.43;4.77;;;;;;;8.83;97.39;99441.84;5051410;28;20614;-75
2023/12/13 09:54:35;;;;;;;16.83;5.30;;;;;;;8.90;97.31;99442.81;5053168;28;20184;-75
2023/12/13 09:57:04;;;;;;;10.80;5.57;;;;;;;8.90;97.38;99445.50;5052562;28;20571;-75
2023/12/13 09:59:31;;;;;;;6.63;5.17;;;;;;;8.91;97.57;99444.47;5052826;28;20737;-75
2023/12/13 10:01:57;;;;;;;16.57;5.83;;;;;;;8.94;97.27;99446.81;5052793;28;20229;-75
2023/12/13 10:04:30;;;;;;;6.53;5.33;;;;;;;9.02;96.86;99459.28;5052743;28;20187;-75
2023/12/13 10:06:56;;;;;;;17.33;6.00;;;;;;;9.02;96.75;99456.59;5053013;28;20637;-75
2023/12/13 10:09:27;;;;;;;7.30;4.57;;;;;;;9.03;97.04;99456.44;5054761;28;20211;-75
2023/12/13 10:11:58;;;;;;;7.97;5.37;;;;;;;9.04;96.59;99455.41;5056104;28;20195;-75
2023/12/13 10:14:25;;;;;;;16.10;5.33;;;;;;;8.88;96.64;99455.47;5056116;28;20205;-76
2023/12/13 10:16:52;;;;;;;18.23;6.37;;;;;;;8.87;96.74;99463.66;5056010;28;20191;-76
2023/12/13 10:19:34;;;;;;;6.83;5.53;;;;;;;8.87;96.88;99461.00;5055960;28;20286;-76
2023/12/13 10:22:05;;;;;;;9.60;4.90;;;;;;;8.83;97.08;99457.81;5056221;28;20191;-76
2023/12/13 10:24:32;;;;;;;13.33;5.03;;;;;;;8.84;97.15;99462.16;5054617;28;20657;-76
2023/12/13 10:26:58;;;;;;;6.40;4.53;;;;;;;8.95;96.58;99467.13;5055919;28;20741;-76
2023/12/13 10:29:25;;;;;;;8.90;4.63;;;;;;;9.00;95.90;99461.25;5055786;28;20616;-76
2023/12/13 10:31:53;;;;;;;9.43;3.77;;;;;;;8.98;95.99;99464.13;5055778;28;20195;-76
2023/12/13 10:34:19;;;;;;;12.60;4.37;;;;;;;8.96;96.16;99465.28;5056214;28;20203;-76
2023/12/13 10:36:48;;;;;;;6.53;4.63;;;;;;;8.97;96.11;99469.59;5055858;28;20186;-76
2023/12/13 10:39:15;;;;;;;13.93;4.80;;;;;;;9.01;96.24;99461.09;5055521;28;20215;-75
2023/12/13 10:41:44;;;;;;;4.63;4.53;;;;;;;9.05;95.90;99465.09;5055851;28;20264;-75
2023/12/13 10:44:16;;;;;;;9.60;4.97;;;;;;;8.98;96.18;99463.28;5055746;28;20187;-75
2023/12/13 10:46:46;;;;;;;6.30;5.27;;;;;;;8.96;96.63;99467.94;5055766;28;20665;-76
2023/12/13 10:49:15;;;;;;;10.53;5.77;;;;;;;9.00;96.95;99471.94;5055922;28;20570;-75
2023/12/13 10:51:44;;;;;;;10.80;5.77;;;;;;;9.05;97.18;99467.75;5055332;28;20190;-75
2023/12/13 10:54:12;;;;;;;12.93;4.73;;;;;;;9.06;97.03;99461.41;5055271;28;20191;-75
2023/12/13 10:56:39;;;;;;;11.50;4.97;;;;;;;9.08;97.15;99467.41;5055221;28;20257;-75
2023/12/13 10:59:09;;;;;;;13.40;5.13;;;;;;;9.11;97.21;99466.25;5055082;28;20219;-75
2023/12/13 11:01:39;;;;;;;13.60;6.40;;;;;;;9.14;96.90;99461.38;5055162;28;20249;-75
2023/12/13 11:04:09;;;;;;;10.67;5.57;;;;;;;9.11;96.74;99460.91;5055150;28;20582;-75
2023/12/13 11:06:36;;;;;;;16.00;6.43;;;;;;;9.11;96.77;99461.75;5055335;28;20190;-75
2023/12/13 11:09:13;;;;;;;7.67;5.20;;;;;;;9.12;96.64;99457.25;5054981;28;20237;-75
2023/12/13 11:11:44;;;;;;;11.00;5.60;;;;;;;9.31;96.27;99464.81;5054993;28;20286;-75
2023/12/13 11:14:11;;;;;;;12.47;5.77;;;;;;;9.32;95.79;99465.63;5055180;28;20183;-75
2023/12/13 11:16:40;;;;;;;9.87;5.97;;;;;;;9.33;95.52;99464.63;5055047;28;20195;-75
2023/12/13 11:19:11;;;;;;;6.43;5.93;;;;;;;9.31;95.39;99467.47;5054984;28;20218;-75
2023/12/13 11:21:40;;;;;;;8.20;5.80;;;;;;;9.33;94.92;99475.31;5054265;28;20186;-75
2023/12/13 11:24:16;;;;;;;6.03;5.47;;;;;;;9.28;94.78;99469.66;5055032;28;20249;-75
2023/12/13 11:26:48;;;;;;;15.60;6.90;;;;;;;9.22;94.28;99470.34;5054952;28;20187;-75
2023/12/13 11:29:20;;;;;;;10.87;6.03;;;;;;;9.13;94.18;99477.53;5054671;28;20203;-75
2023/12/13 11:31:51;;;;;;;5.80;5.37;;;;;;;9.17;94.01;99471.69;5055194;28;20206;-75
2023/12/13 11:34:31;;;;;;;6.13;4.00;;;;;;;9.17;93.76;99481.53;5053359;28;20718;-75
2023/12/13 11:37:06;;;;;;;4.67;4.27;;;;;;;9.16;92.97;99474.56;5054649;28;20198;-75
2023/12/13 11:39:34;;;;;;;6.57;3.33;;;;;;;9.17;92.78;99482.34;5054373;28;20623;-74